sensor_id;sensor_type;location;lat;lon;timestamp;P1;durP1;ratioP1;P2;durP2;ratioP2
12968;SDS011;6549;53.128;8.182;2022-11-18T00:01:22;10.93;;;6.88;;
12968;SDS011;6549;53.128;8.182;2022-11-18T00:04:23;12.45;;;6.63;;
12968;SDS011;6549;53.128;8.182;2022-11-18T00:07:23;10.65;;;6.25;;
12968;SDS011;6549;53.128;8.182;2022-11-18T00:10:25;10.20;;;6.57;;
12968;SDS011;6549;53.128;8.182;2022-11-18T00:13:25;10.82;;;6.53;;
12968;SDS011;6549;53.128;8.182;2022-11-18T00:16:48;10.02;;;6.15;;
12968;SDS011;6549;53.128;8.182;2022-11-18T00:19:50;11.15;;;6.82;;
12968;SDS011;6549;53.128;8.182;2022-11-18T00:22:51;12.93;;;6.90;;
12968;SDS011;6549;53.128;8.182;2022-11-18T00:25:51;10.45;;;6.63;;
12968;SDS011;6549;53.128;8.182;2022-11-18T00:28:51;9.40;;;5.97;;
12968;SDS011;6549;53.128;8.182;2022-11-18T00:31:51;11.75;;;5.97;;
12968;SDS011;6549;53.128;8.182;2022-11-18T00:34:52;11.23;;;6.95;;
12968;SDS011;6549;53.128;8.182;2022-11-18T00:37:52;10.25;;;6.15;;
12968;SDS011;6549;53.128;8.182;2022-11-18T00:40:59;10.50;;;6.30;;
12968;SDS011;6549;53.128;8.182;2022-11-18T00:44:05;15.80;;;6.90;;
12968;SDS011;6549;53.128;8.182;2022-11-18T00:47:05;12.73;;;7.07;;
12968;SDS011;6549;53.128;8.182;2022-11-18T00:50:05;10.75;;;6.90;;
12968;SDS011;6549;53.128;8.182;2022-11-18T00:53:06;10.38;;;6.72;;
12968;SDS011;6549;53.128;8.182;2022-11-18T00:56:07;10.75;;;5.88;;
12968;SDS011;6549;53.128;8.182;2022-11-18T00:59:07;10.32;;;6.38;;
12968;SDS011;6549;53.128;8.182;2022-11-18T01:02:08;14.30;;;6.75;;
12968;SDS011;6549;53.128;8.182;2022-11-18T01:05:08;11.10;;;6.53;;
12968;SDS011;6549;53.128;8.182;2022-11-18T01:08:09;10.63;;;6.28;;
12968;SDS011;6549;53.128;8.182;2022-11-18T01:11:10;10.88;;;6.60;;
12968;SDS011;6549;53.128;8.182;2022-11-18T01:14:29;9.90;;;5.90;;
12968;SDS011;6549;53.128;8.182;2022-11-18T01:17:30;9.38;;;5.97;;
12968;SDS011;6549;53.128;8.182;2022-11-18T01:20:31;13.02;;;6.72;;
12968;SDS011;6549;53.128;8.182;2022-11-18T01:23:32;12.93;;;7.45;;
12968;SDS011;6549;53.128;8.182;2022-11-18T01:26:32;10.70;;;6.40;;
12968;SDS011;6549;53.128;8.182;2022-11-18T01:29:32;10.55;;;6.25;;
12968;SDS011;6549;53.128;8.182;2022-11-18T01:32:33;11.85;;;6.43;;
12968;SDS011;6549;53.128;8.182;2022-11-18T01:35:34;11.05;;;6.75;;
12968;SDS011;6549;53.128;8.182;2022-11-18T01:38:35;10.37;;;6.43;;
12968;SDS011;6549;53.128;8.182;2022-11-18T01:41:36;11.85;;;6.25;;
12968;SDS011;6549;53.128;8.182;2022-11-18T01:44:56;10.60;;;6.43;;
12968;SDS011;6549;53.128;8.182;2022-11-18T01:47:59;10.88;;;6.30;;
12968;SDS011;6549;53.128;8.182;2022-11-18T01:51:03;11.02;;;6.47;;
12968;SDS011;6549;53.128;8.182;2022-11-18T01:54:07;11.85;;;6.63;;
12968;SDS011;6549;53.128;8.182;2022-11-18T01:57:12;12.85;;;7.10;;
12968;SDS011;6549;53.128;8.182;2022-11-18T02:00:17;12.38;;;6.90;;
12968;SDS011;6549;53.128;8.182;2022-11-18T02:03:17;12.93;;;7.30;;
12968;SDS011;6549;53.128;8.182;2022-11-18T02:06:19;11.73;;;6.35;;
12968;SDS011;6549;53.128;8.182;2022-11-18T02:09:20;12.82;;;6.95;;
12968;SDS011;6549;53.128;8.182;2022-11-18T02:12:21;11.82;;;6.38;;
12968;SDS011;6549;53.128;8.182;2022-11-18T02:15:24;11.43;;;7.03;;
12968;SDS011;6549;53.128;8.182;2022-11-18T02:18:59;11.45;;;6.70;;
12968;SDS011;6549;53.128;8.182;2022-11-18T02:31:59;11.48;;;6.45;;
12968;SDS011;6549;53.128;8.182;2022-11-18T02:35:08;11.82;;;6.53;;
12968;SDS011;6549;53.128;8.182;2022-11-18T02:38:23;12.93;;;6.88;;
12968;SDS011;6549;53.128;8.182;2022-11-18T02:41:29;14.70;;;7.28;;
12968;SDS011;6549;53.128;8.182;2022-11-18T02:44:33;11.48;;;7.13;;
12968;SDS011;6549;53.128;8.182;2022-11-18T02:47:37;13.07;;;7.57;;
12968;SDS011;6549;53.128;8.182;2022-11-18T02:50:41;11.23;;;6.50;;
12968;SDS011;6549;53.128;8.182;2022-11-18T02:53:44;13.65;;;7.05;;
12968;SDS011;6549;53.128;8.182;2022-11-18T02:56:46;13.00;;;7.25;;
12968;SDS011;6549;53.128;8.182;2022-11-18T02:59:50;12.98;;;6.95;;
12968;SDS011;6549;53.128;8.182;2022-11-18T03:02:50;11.57;;;6.38;;
12968;SDS011;6549;53.128;8.182;2022-11-18T03:15:55;12.07;;;6.80;;
12968;SDS011;6549;53.128;8.182;2022-11-18T03:22:25;13.63;;;6.78;;
12968;SDS011;6549;53.128;8.182;2022-11-18T03:32:11;12.88;;;7.03;;
12968;SDS011;6549;53.128;8.182;2022-11-18T03:35:17;14.73;;;7.00;;
12968;SDS011;6549;53.128;8.182;2022-11-18T03:38:25;11.75;;;5.72;;
12968;SDS011;6549;53.128;8.182;2022-11-18T03:41:30;10.32;;;5.25;;
12968;SDS011;6549;53.128;8.182;2022-11-18T03:44:35;8.95;;;5.15;;
12968;SDS011;6549;53.128;8.182;2022-11-18T03:47:41;10.88;;;5.85;;
12968;SDS011;6549;53.128;8.182;2022-11-18T03:50:54;10.80;;;5.55;;
12968;SDS011;6549;53.128;8.182;2022-11-18T03:54:00;9.05;;;4.65;;
12968;SDS011;6549;53.128;8.182;2022-11-18T03:57:09;8.38;;;4.95;;
12968;SDS011;6549;53.128;8.182;2022-11-18T04:00:14;9.10;;;5.32;;
12968;SDS011;6549;53.128;8.182;2022-11-18T04:03:16;8.60;;;5.13;;
12968;SDS011;6549;53.128;8.182;2022-11-18T04:06:21;9.70;;;4.97;;
12968;SDS011;6549;53.128;8.182;2022-11-18T04:09:29;10.90;;;6.03;;
12968;SDS011;6549;53.128;8.182;2022-11-18T04:12:42;9.35;;;5.45;;
12968;SDS011;6549;53.128;8.182;2022-11-18T04:15:47;9.98;;;5.72;;
12968;SDS011;6549;53.128;8.182;2022-11-18T04:18:48;12.02;;;6.20;;
12968;SDS011;6549;53.128;8.182;2022-11-18T04:21:48;11.48;;;6.60;;
12968;SDS011;6549;53.128;8.182;2022-11-18T04:24:49;13.23;;;7.05;;
12968;SDS011;6549;53.128;8.182;2022-11-18T04:27:50;15.90;;;7.05;;
12968;SDS011;6549;53.128;8.182;2022-11-18T04:30:50;11.43;;;6.60;;
12968;SDS011;6549;53.128;8.182;2022-11-18T04:33:51;11.73;;;7.13;;
12968;SDS011;6549;53.128;8.182;2022-11-18T04:36:51;14.57;;;7.30;;
12968;SDS011;6549;53.128;8.182;2022-11-18T04:39:52;14.48;;;7.88;;
12968;SDS011;6549;53.128;8.182;2022-11-18T04:42:52;12.23;;;6.40;;
12968;SDS011;6549;53.128;8.182;2022-11-18T04:45:52;13.40;;;6.85;;
12968;SDS011;6549;53.128;8.182;2022-11-18T04:48:53;13.40;;;6.95;;
12968;SDS011;6549;53.128;8.182;2022-11-18T04:51:54;13.77;;;7.50;;
12968;SDS011;6549;53.128;8.182;2022-11-18T04:54:55;13.45;;;7.88;;
12968;SDS011;6549;53.128;8.182;2022-11-18T04:57:55;14.50;;;8.38;;
12968;SDS011;6549;53.128;8.182;2022-11-18T05:00:55;14.30;;;8.10;;
12968;SDS011;6549;53.128;8.182;2022-11-18T05:03:56;17.50;;;8.65;;
12968;SDS011;6549;53.128;8.182;2022-11-18T05:06:56;16.38;;;8.90;;
12968;SDS011;6549;53.128;8.182;2022-11-18T05:09:58;17.80;;;8.68;;
12968;SDS011;6549;53.128;8.182;2022-11-18T05:12:59;17.00;;;9.07;;
12968;SDS011;6549;53.128;8.182;2022-11-18T05:16:00;15.60;;;9.00;;
12968;SDS011;6549;53.128;8.182;2022-11-18T05:19:01;17.52;;;9.55;;
12968;SDS011;6549;53.128;8.182;2022-11-18T05:22:02;17.20;;;9.30;;
12968;SDS011;6549;53.128;8.182;2022-11-18T05:25:02;17.50;;;9.82;;
12968;SDS011;6549;53.128;8.182;2022-11-18T05:28:03;18.77;;;9.77;;
12968;SDS011;6549;53.128;8.182;2022-11-18T05:31:11;18.55;;;9.93;;
12968;SDS011;6549;53.128;8.182;2022-11-18T05:34:13;17.90;;;9.57;;
12968;SDS011;6549;53.128;8.182;2022-11-18T05:37:14;17.55;;;9.85;;
12968;SDS011;6549;53.128;8.182;2022-11-18T05:40:14;18.42;;;9.80;;
12968;SDS011;6549;53.128;8.182;2022-11-18T05:43:15;20.85;;;9.70;;
12968;SDS011;6549;53.128;8.182;2022-11-18T05:46:15;19.80;;;10.15;;
12968;SDS011;6549;53.128;8.182;2022-11-18T05:49:16;21.67;;;11.10;;
12968;SDS011;6549;53.128;8.182;2022-11-18T05:52:16;22.17;;;11.45;;
12968;SDS011;6549;53.128;8.182;2022-11-18T05:55:16;22.63;;;11.15;;
12968;SDS011;6549;53.128;8.182;2022-11-18T05:58:18;20.65;;;11.10;;
12968;SDS011;6549;53.128;8.182;2022-11-18T06:01:20;20.75;;;9.82;;
12968;SDS011;6549;53.128;8.182;2022-11-18T06:07:31;24.42;;;10.70;;
12968;SDS011;6549;53.128;8.182;2022-11-18T06:10:33;20.40;;;10.05;;
12968;SDS011;6549;53.128;8.182;2022-11-18T06:16:43;20.58;;;10.23;;
12968;SDS011;6549;53.128;8.182;2022-11-18T06:19:48;21.80;;;11.13;;
12968;SDS011;6549;53.128;8.182;2022-11-18T06:22:50;23.60;;;10.68;;
12968;SDS011;6549;53.128;8.182;2022-11-18T06:25:54;21.70;;;11.18;;
12968;SDS011;6549;53.128;8.182;2022-11-18T06:28:55;18.77;;;9.68;;
12968;SDS011;6549;53.128;8.182;2022-11-18T06:31:56;18.92;;;10.23;;
12968;SDS011;6549;53.128;8.182;2022-11-18T06:34:56;24.23;;;11.88;;
12968;SDS011;6549;53.128;8.182;2022-11-18T06:37:56;22.38;;;11.23;;
12968;SDS011;6549;53.128;8.182;2022-11-18T06:40:58;22.80;;;11.77;;
12968;SDS011;6549;53.128;8.182;2022-11-18T06:43:59;25.05;;;11.30;;
12968;SDS011;6549;53.128;8.182;2022-11-18T06:47:00;24.13;;;12.30;;
12968;SDS011;6549;53.128;8.182;2022-11-18T06:50:01;25.05;;;11.50;;
12968;SDS011;6549;53.128;8.182;2022-11-18T06:53:02;26.77;;;13.32;;
12968;SDS011;6549;53.128;8.182;2022-11-18T06:56:02;25.90;;;11.63;;
12968;SDS011;6549;53.128;8.182;2022-11-18T06:59:04;23.73;;;12.45;;
12968;SDS011;6549;53.128;8.182;2022-11-18T07:02:04;25.48;;;12.18;;
12968;SDS011;6549;53.128;8.182;2022-11-18T07:05:04;23.48;;;12.65;;
12968;SDS011;6549;53.128;8.182;2022-11-18T07:08:05;25.60;;;12.75;;
12968;SDS011;6549;53.128;8.182;2022-11-18T07:11:06;24.77;;;12.48;;
12968;SDS011;6549;53.128;8.182;2022-11-18T07:14:11;25.20;;;11.80;;
12968;SDS011;6549;53.128;8.182;2022-11-18T07:17:11;26.47;;;12.73;;
12968;SDS011;6549;53.128;8.182;2022-11-18T07:20:12;28.40;;;13.15;;
12968;SDS011;6549;53.128;8.182;2022-11-18T07:23:12;25.48;;;11.32;;
12968;SDS011;6549;53.128;8.182;2022-11-18T07:26:12;23.50;;;12.65;;
12968;SDS011;6549;53.128;8.182;2022-11-18T07:29:13;26.35;;;12.50;;
12968;SDS011;6549;53.128;8.182;2022-11-18T07:32:14;26.90;;;11.82;;
12968;SDS011;6549;53.128;8.182;2022-11-18T07:35:14;27.98;;;12.68;;
12968;SDS011;6549;53.128;8.182;2022-11-18T07:41:18;24.83;;;13.03;;
12968;SDS011;6549;53.128;8.182;2022-11-18T07:44:22;24.70;;;12.35;;
12968;SDS011;6549;53.128;8.182;2022-11-18T07:47:23;25.60;;;12.75;;
12968;SDS011;6549;53.128;8.182;2022-11-18T07:50:23;24.33;;;12.77;;
12968;SDS011;6549;53.128;8.182;2022-11-18T07:53:24;25.08;;;12.50;;
12968;SDS011;6549;53.128;8.182;2022-11-18T07:56:24;24.38;;;13.25;;
12968;SDS011;6549;53.128;8.182;2022-11-18T07:59:24;24.70;;;13.25;;
12968;SDS011;6549;53.128;8.182;2022-11-18T08:02:24;27.75;;;14.55;;
12968;SDS011;6549;53.128;8.182;2022-11-18T08:05:25;27.90;;;13.65;;
12968;SDS011;6549;53.128;8.182;2022-11-18T08:08:25;25.75;;;13.68;;
12968;SDS011;6549;53.128;8.182;2022-11-18T08:11:26;27.15;;;14.27;;
12968;SDS011;6549;53.128;8.182;2022-11-18T08:14:29;24.45;;;13.43;;
12968;SDS011;6549;53.128;8.182;2022-11-18T08:17:29;24.58;;;12.77;;
12968;SDS011;6549;53.128;8.182;2022-11-18T08:20:32;24.13;;;13.23;;
12968;SDS011;6549;53.128;8.182;2022-11-18T08:23:33;23.27;;;12.25;;
12968;SDS011;6549;53.128;8.182;2022-11-18T08:26:34;23.08;;;12.73;;
12968;SDS011;6549;53.128;8.182;2022-11-18T08:29:34;24.83;;;12.80;;
12968;SDS011;6549;53.128;8.182;2022-11-18T08:32:34;25.67;;;12.77;;
12968;SDS011;6549;53.128;8.182;2022-11-18T08:35:35;24.30;;;12.25;;
12968;SDS011;6549;53.128;8.182;2022-11-18T08:38:35;25.88;;;13.30;;
12968;SDS011;6549;53.128;8.182;2022-11-18T08:41:42;26.02;;;12.70;;
12968;SDS011;6549;53.128;8.182;2022-11-18T08:44:42;27.80;;;14.15;;
12968;SDS011;6549;53.128;8.182;2022-11-18T08:47:43;26.92;;;14.18;;
12968;SDS011;6549;53.128;8.182;2022-11-18T08:50:43;27.02;;;13.95;;
12968;SDS011;6549;53.128;8.182;2022-11-18T08:53:43;25.75;;;12.90;;
12968;SDS011;6549;53.128;8.182;2022-11-18T08:56:44;25.25;;;12.82;;
12968;SDS011;6549;53.128;8.182;2022-11-18T08:59:44;25.55;;;13.15;;
12968;SDS011;6549;53.128;8.182;2022-11-18T09:02:44;26.75;;;13.45;;
12968;SDS011;6549;53.128;8.182;2022-11-18T09:05:45;26.15;;;13.60;;
12968;SDS011;6549;53.128;8.182;2022-11-18T09:08:46;24.20;;;12.60;;
12968;SDS011;6549;53.128;8.182;2022-11-18T09:11:46;29.98;;;15.15;;
12968;SDS011;6549;53.128;8.182;2022-11-18T09:14:47;26.77;;;15.00;;
12968;SDS011;6549;53.128;8.182;2022-11-18T09:17:47;29.17;;;15.05;;
12968;SDS011;6549;53.128;8.182;2022-11-18T09:20:57;30.35;;;14.10;;
12968;SDS011;6549;53.128;8.182;2022-11-18T09:24:03;26.98;;;13.95;;
12968;SDS011;6549;53.128;8.182;2022-11-18T09:27:04;29.27;;;14.87;;
12968;SDS011;6549;53.128;8.182;2022-11-18T09:30:06;30.92;;;14.50;;
12968;SDS011;6549;53.128;8.182;2022-11-18T09:33:06;30.02;;;15.60;;
12968;SDS011;6549;53.128;8.182;2022-11-18T09:36:20;30.88;;;15.63;;
12968;SDS011;6549;53.128;8.182;2022-11-18T09:39:22;30.75;;;14.82;;
12968;SDS011;6549;53.128;8.182;2022-11-18T09:45:47;29.45;;;14.20;;
12968;SDS011;6549;53.128;8.182;2022-11-18T09:48:55;30.13;;;14.82;;
12968;SDS011;6549;53.128;8.182;2022-11-18T09:55:17;27.38;;;14.20;;
12968;SDS011;6549;53.128;8.182;2022-11-18T09:58:24;27.58;;;14.40;;
12968;SDS011;6549;53.128;8.182;2022-11-18T10:01:31;29.52;;;15.57;;
12968;SDS011;6549;53.128;8.182;2022-11-18T10:04:32;30.70;;;15.40;;
12968;SDS011;6549;53.128;8.182;2022-11-18T10:07:37;29.17;;;15.40;;
12968;SDS011;6549;53.128;8.182;2022-11-18T10:17:24;30.07;;;15.70;;
12968;SDS011;6549;53.128;8.182;2022-11-18T10:23:59;30.25;;;16.52;;
12968;SDS011;6549;53.128;8.182;2022-11-18T10:27:11;31.83;;;16.48;;
12968;SDS011;6549;53.128;8.182;2022-11-18T10:30:17;35.70;;;17.45;;
12968;SDS011;6549;53.128;8.182;2022-11-18T10:36:28;37.00;;;18.50;;
12968;SDS011;6549;53.128;8.182;2022-11-18T10:39:30;33.30;;;17.95;;
12968;SDS011;6549;53.128;8.182;2022-11-18T10:45:36;38.45;;;19.45;;
12968;SDS011;6549;53.128;8.182;2022-11-18T10:48:37;35.85;;;18.98;;
12968;SDS011;6549;53.128;8.182;2022-11-18T10:58:12;36.25;;;18.13;;
12968;SDS011;6549;53.128;8.182;2022-11-18T11:04:21;39.30;;;19.33;;
12968;SDS011;6549;53.128;8.182;2022-11-18T11:07:28;37.42;;;18.77;;
12968;SDS011;6549;53.128;8.182;2022-11-18T11:10:34;40.28;;;19.85;;
12968;SDS011;6549;53.128;8.182;2022-11-18T11:13:37;40.72;;;19.48;;
12968;SDS011;6549;53.128;8.182;2022-11-18T11:20:12;37.25;;;17.88;;
12968;SDS011;6549;53.128;8.182;2022-11-18T11:23:18;35.47;;;18.30;;
12968;SDS011;6549;53.128;8.182;2022-11-18T11:26:35;37.90;;;18.17;;
12968;SDS011;6549;53.128;8.182;2022-11-18T11:30:02;34.47;;;17.17;;
12968;SDS011;6549;53.128;8.182;2022-11-18T11:33:18;31.63;;;16.85;;
12968;SDS011;6549;53.128;8.182;2022-11-18T11:49:26;29.98;;;15.07;;
12968;SDS011;6549;53.128;8.182;2022-11-18T11:55:52;31.13;;;16.77;;
12968;SDS011;6549;53.128;8.182;2022-11-18T11:59:26;34.40;;;16.92;;
12968;SDS011;6549;53.128;8.182;2022-11-18T12:02:47;28.58;;;16.00;;
12968;SDS011;6549;53.128;8.182;2022-11-18T12:05:57;30.02;;;15.50;;
12968;SDS011;6549;53.128;8.182;2022-11-18T12:09:01;28.05;;;15.30;;
12968;SDS011;6549;53.128;8.182;2022-11-18T12:12:17;30.65;;;15.60;;
12968;SDS011;6549;53.128;8.182;2022-11-18T12:15:53;30.85;;;15.82;;
12968;SDS011;6549;53.128;8.182;2022-11-18T12:22:10;28.30;;;14.77;;
12968;SDS011;6549;53.128;8.182;2022-11-18T12:25:42;27.33;;;14.77;;
12968;SDS011;6549;53.128;8.182;2022-11-18T12:28:47;28.10;;;15.77;;
12968;SDS011;6549;53.128;8.182;2022-11-18T12:31:51;28.65;;;15.27;;
12968;SDS011;6549;53.128;8.182;2022-11-18T12:35:02;26.58;;;14.35;;
12968;SDS011;6549;53.128;8.182;2022-11-18T12:38:26;26.13;;;13.82;;
12968;SDS011;6549;53.128;8.182;2022-11-18T12:44:59;26.77;;;14.77;;
12968;SDS011;6549;53.128;8.182;2022-11-18T12:48:55;25.58;;;15.15;;
12968;SDS011;6549;53.128;8.182;2022-11-18T12:51:59;29.23;;;15.68;;
12968;SDS011;6549;53.128;8.182;2022-11-18T12:55:25;25.23;;;14.35;;
12968;SDS011;6549;53.128;8.182;2022-11-18T12:58:29;27.17;;;15.18;;
12968;SDS011;6549;53.128;8.182;2022-11-18T13:01:30;25.90;;;14.77;;
12968;SDS011;6549;53.128;8.182;2022-11-18T13:04:35;26.52;;;15.20;;
12968;SDS011;6549;53.128;8.182;2022-11-18T13:11:14;26.75;;;15.40;;
12968;SDS011;6549;53.128;8.182;2022-11-18T13:14:35;27.02;;;15.00;;
12968;SDS011;6549;53.128;8.182;2022-11-18T13:18:04;23.38;;;14.20;;
12968;SDS011;6549;53.128;8.182;2022-11-18T13:21:07;25.02;;;15.15;;
12968;SDS011;6549;53.128;8.182;2022-11-18T13:24:26;25.63;;;14.05;;
12968;SDS011;6549;53.128;8.182;2022-11-18T13:27:47;23.30;;;13.48;;
12968;SDS011;6549;53.128;8.182;2022-11-18T13:31:16;23.35;;;13.50;;
12968;SDS011;6549;53.128;8.182;2022-11-18T13:34:20;24.38;;;13.48;;
12968;SDS011;6549;53.128;8.182;2022-11-18T13:37:23;23.83;;;13.98;;
12968;SDS011;6549;53.128;8.182;2022-11-18T13:44:09;24.58;;;14.10;;
12968;SDS011;6549;53.128;8.182;2022-11-18T13:53:32;27.02;;;15.75;;
12968;SDS011;6549;53.128;8.182;2022-11-18T13:56:37;27.40;;;15.55;;
12968;SDS011;6549;53.128;8.182;2022-11-18T13:59:40;27.88;;;15.93;;
12968;SDS011;6549;53.128;8.182;2022-11-18T14:02:41;28.97;;;16.43;;
12968;SDS011;6549;53.128;8.182;2022-11-18T14:05:51;28.85;;;16.38;;
12968;SDS011;6549;53.128;8.182;2022-11-18T14:15:13;30.27;;;16.55;;
12968;SDS011;6549;53.128;8.182;2022-11-18T14:21:34;31.48;;;17.67;;
12968;SDS011;6549;53.128;8.182;2022-11-18T14:24:39;30.27;;;18.08;;
12968;SDS011;6549;53.128;8.182;2022-11-18T14:27:49;29.05;;;17.02;;
12968;SDS011;6549;53.128;8.182;2022-11-18T14:30:55;27.83;;;16.77;;
12968;SDS011;6549;53.128;8.182;2022-11-18T14:34:17;27.88;;;16.60;;
12968;SDS011;6549;53.128;8.182;2022-11-18T14:37:22;29.08;;;16.67;;
12968;SDS011;6549;53.128;8.182;2022-11-18T14:40:22;30.83;;;17.48;;
12968;SDS011;6549;53.128;8.182;2022-11-18T14:43:23;30.85;;;17.27;;
12968;SDS011;6549;53.128;8.182;2022-11-18T14:46:24;30.38;;;16.85;;
12968;SDS011;6549;53.128;8.182;2022-11-18T14:49:25;30.58;;;17.33;;
12968;SDS011;6549;53.128;8.182;2022-11-18T14:52:26;26.50;;;16.20;;
12968;SDS011;6549;53.128;8.182;2022-11-18T14:55:27;28.42;;;16.38;;
12968;SDS011;6549;53.128;8.182;2022-11-18T14:58:27;32.75;;;19.35;;
12968;SDS011;6549;53.128;8.182;2022-11-18T15:01:27;32.63;;;18.75;;
12968;SDS011;6549;53.128;8.182;2022-11-18T15:04:28;32.90;;;18.00;;
12968;SDS011;6549;53.128;8.182;2022-11-18T15:07:28;29.80;;;17.88;;
12968;SDS011;6549;53.128;8.182;2022-11-18T15:10:29;32.13;;;17.30;;
12968;SDS011;6549;53.128;8.182;2022-11-18T15:13:29;27.33;;;16.42;;
12968;SDS011;6549;53.128;8.182;2022-11-18T15:16:30;29.17;;;17.15;;
12968;SDS011;6549;53.128;8.182;2022-11-18T15:19:31;32.95;;;18.50;;
12968;SDS011;6549;53.128;8.182;2022-11-18T15:22:32;32.38;;;18.45;;
12968;SDS011;6549;53.128;8.182;2022-11-18T15:25:33;31.08;;;17.48;;
12968;SDS011;6549;53.128;8.182;2022-11-18T15:28:33;31.73;;;18.63;;
12968;SDS011;6549;53.128;8.182;2022-11-18T15:31:34;33.03;;;19.17;;
12968;SDS011;6549;53.128;8.182;2022-11-18T15:34:34;32.55;;;17.77;;
12968;SDS011;6549;53.128;8.182;2022-11-18T15:37:34;31.10;;;18.13;;
12968;SDS011;6549;53.128;8.182;2022-11-18T15:40:35;30.17;;;17.58;;
12968;SDS011;6549;53.128;8.182;2022-11-18T15:43:35;31.92;;;18.98;;
12968;SDS011;6549;53.128;8.182;2022-11-18T15:46:36;32.13;;;19.42;;
12968;SDS011;6549;53.128;8.182;2022-11-18T15:49:36;29.40;;;17.83;;
12968;SDS011;6549;53.128;8.182;2022-11-18T15:52:41;30.27;;;18.00;;
12968;SDS011;6549;53.128;8.182;2022-11-18T15:55:42;31.52;;;18.23;;
12968;SDS011;6549;53.128;8.182;2022-11-18T15:58:42;30.05;;;17.75;;
12968;SDS011;6549;53.128;8.182;2022-11-18T16:01:44;30.52;;;18.38;;
12968;SDS011;6549;53.128;8.182;2022-11-18T16:04:46;29.35;;;17.73;;
12968;SDS011;6549;53.128;8.182;2022-11-18T16:07:46;28.35;;;17.02;;
12968;SDS011;6549;53.128;8.182;2022-11-18T16:10:47;30.90;;;17.90;;
12968;SDS011;6549;53.128;8.182;2022-11-18T16:14:06;32.55;;;17.40;;
12968;SDS011;6549;53.128;8.182;2022-11-18T16:17:09;30.98;;;18.05;;
12968;SDS011;6549;53.128;8.182;2022-11-18T16:20:09;32.05;;;17.70;;
12968;SDS011;6549;53.128;8.182;2022-11-18T16:23:10;31.10;;;17.60;;
12968;SDS011;6549;53.128;8.182;2022-11-18T16:26:10;29.30;;;16.45;;
12968;SDS011;6549;53.128;8.182;2022-11-18T16:29:11;26.83;;;15.85;;
12968;SDS011;6549;53.128;8.182;2022-11-18T16:32:12;26.30;;;15.77;;
12968;SDS011;6549;53.128;8.182;2022-11-18T16:35:14;23.47;;;15.07;;
12968;SDS011;6549;53.128;8.182;2022-11-18T16:38:14;25.38;;;15.35;;
12968;SDS011;6549;53.128;8.182;2022-11-18T16:41:14;23.50;;;14.82;;
12968;SDS011;6549;53.128;8.182;2022-11-18T16:44:33;23.70;;;14.10;;
12968;SDS011;6549;53.128;8.182;2022-11-18T16:47:33;22.20;;;12.82;;
12968;SDS011;6549;53.128;8.182;2022-11-18T16:50:34;23.75;;;15.10;;
12968;SDS011;6549;53.128;8.182;2022-11-18T16:53:34;27.50;;;19.10;;
12968;SDS011;6549;53.128;8.182;2022-11-18T16:56:35;21.85;;;13.93;;
12968;SDS011;6549;53.128;8.182;2022-11-18T16:59:35;21.80;;;16.20;;
12968;SDS011;6549;53.128;8.182;2022-11-18T17:02:35;30.58;;;21.15;;
12968;SDS011;6549;53.128;8.182;2022-11-18T17:05:36;21.60;;;12.77;;
12968;SDS011;6549;53.128;8.182;2022-11-18T17:08:36;20.85;;;13.10;;
12968;SDS011;6549;53.128;8.182;2022-11-18T17:11:37;20.98;;;12.98;;
12968;SDS011;6549;53.128;8.182;2022-11-18T17:14:37;19.52;;;11.52;;
12968;SDS011;6549;53.128;8.182;2022-11-18T17:17:39;22.02;;;13.50;;
12968;SDS011;6549;53.128;8.182;2022-11-18T17:20:39;20.63;;;11.88;;
12968;SDS011;6549;53.128;8.182;2022-11-18T17:23:40;17.25;;;10.95;;
12968;SDS011;6549;53.128;8.182;2022-11-18T17:26:40;21.40;;;15.38;;
12968;SDS011;6549;53.128;8.182;2022-11-18T17:29:41;19.85;;;12.57;;
12968;SDS011;6549;53.128;8.182;2022-11-18T17:32:41;17.38;;;10.65;;
12968;SDS011;6549;53.128;8.182;2022-11-18T17:35:41;19.63;;;12.05;;
12968;SDS011;6549;53.128;8.182;2022-11-18T17:38:42;20.77;;;14.57;;
12968;SDS011;6549;53.128;8.182;2022-11-18T17:45:03;15.15;;;10.23;;
12968;SDS011;6549;53.128;8.182;2022-11-18T17:48:04;16.38;;;9.82;;
12968;SDS011;6549;53.128;8.182;2022-11-18T17:51:05;14.20;;;8.85;;
12968;SDS011;6549;53.128;8.182;2022-11-18T17:54:06;12.52;;;8.45;;
12968;SDS011;6549;53.128;8.182;2022-11-18T17:57:07;13.98;;;8.55;;
12968;SDS011;6549;53.128;8.182;2022-11-18T18:00:08;12.80;;;7.47;;
12968;SDS011;6549;53.128;8.182;2022-11-18T18:03:08;12.13;;;7.95;;
12968;SDS011;6549;53.128;8.182;2022-11-18T18:06:09;13.02;;;7.60;;
12968;SDS011;6549;53.128;8.182;2022-11-18T18:09:10;11.07;;;7.18;;
12968;SDS011;6549;53.128;8.182;2022-11-18T18:12:11;11.20;;;7.20;;
12968;SDS011;6549;53.128;8.182;2022-11-18T18:15:30;12.13;;;7.55;;
12968;SDS011;6549;53.128;8.182;2022-11-18T18:18:30;14.80;;;7.13;;
12968;SDS011;6549;53.128;8.182;2022-11-18T18:21:31;12.02;;;6.60;;
12968;SDS011;6549;53.128;8.182;2022-11-18T18:24:31;10.23;;;6.78;;
12968;SDS011;6549;53.128;8.182;2022-11-18T18:27:32;9.57;;;6.38;;
12968;SDS011;6549;53.128;8.182;2022-11-18T18:30:32;10.60;;;7.07;;
12968;SDS011;6549;53.128;8.182;2022-11-18T18:33:32;10.57;;;6.45;;
12968;SDS011;6549;53.128;8.182;2022-11-18T18:36:35;9.13;;;6.00;;
12968;SDS011;6549;53.128;8.182;2022-11-18T18:39:36;10.70;;;6.57;;
12968;SDS011;6549;53.128;8.182;2022-11-18T18:42:36;11.90;;;6.55;;
12968;SDS011;6549;53.128;8.182;2022-11-18T18:45:37;8.88;;;5.82;;
12968;SDS011;6549;53.128;8.182;2022-11-18T18:49:03;8.27;;;5.82;;
12968;SDS011;6549;53.128;8.182;2022-11-18T18:52:03;10.35;;;6.40;;
12968;SDS011;6549;53.128;8.182;2022-11-18T18:55:04;8.23;;;5.57;;
12968;SDS011;6549;53.128;8.182;2022-11-18T18:58:04;9.23;;;6.10;;
12968;SDS011;6549;53.128;8.182;2022-11-18T19:01:12;8.07;;;5.30;;
12968;SDS011;6549;53.128;8.182;2022-11-18T19:04:14;9.30;;;5.80;;
12968;SDS011;6549;53.128;8.182;2022-11-18T19:07:15;10.55;;;6.15;;
12968;SDS011;6549;53.128;8.182;2022-11-18T19:10:16;7.93;;;5.00;;
12968;SDS011;6549;53.128;8.182;2022-11-18T19:13:16;8.88;;;5.50;;
12968;SDS011;6549;53.128;8.182;2022-11-18T19:16:16;8.45;;;5.03;;
12968;SDS011;6549;53.128;8.182;2022-11-18T19:19:18;8.13;;;5.25;;
12968;SDS011;6549;53.128;8.182;2022-11-18T19:22:43;8.23;;;5.03;;
12968;SDS011;6549;53.128;8.182;2022-11-18T19:25:43;8.68;;;5.25;;
12968;SDS011;6549;53.128;8.182;2022-11-18T19:28:43;10.50;;;5.47;;
12968;SDS011;6549;53.128;8.182;2022-11-18T19:31:44;7.63;;;4.82;;
12968;SDS011;6549;53.128;8.182;2022-11-18T19:34:44;8.70;;;5.47;;
12968;SDS011;6549;53.128;8.182;2022-11-18T19:37:44;9.13;;;5.40;;
12968;SDS011;6549;53.128;8.182;2022-11-18T19:40:46;8.77;;;4.70;;
12968;SDS011;6549;53.128;8.182;2022-11-18T19:43:46;7.55;;;4.60;;
12968;SDS011;6549;53.128;8.182;2022-11-18T19:46:46;8.38;;;5.05;;
12968;SDS011;6549;53.128;8.182;2022-11-18T19:49:47;5.93;;;4.28;;
12968;SDS011;6549;53.128;8.182;2022-11-18T19:52:47;7.60;;;4.22;;
12968;SDS011;6549;53.128;8.182;2022-11-18T19:55:54;7.05;;;4.07;;
12968;SDS011;6549;53.128;8.182;2022-11-18T19:58:55;7.60;;;4.47;;
12968;SDS011;6549;53.128;8.182;2022-11-18T20:01:56;8.77;;;4.50;;
12968;SDS011;6549;53.128;8.182;2022-11-18T20:04:56;6.63;;;4.03;;
12968;SDS011;6549;53.128;8.182;2022-11-18T20:08:15;7.47;;;4.32;;
12968;SDS011;6549;53.128;8.182;2022-11-18T20:11:17;8.27;;;4.57;;
12968;SDS011;6549;53.128;8.182;2022-11-18T20:14:18;6.53;;;4.32;;
12968;SDS011;6549;53.128;8.182;2022-11-18T20:17:19;5.50;;;3.90;;
12968;SDS011;6549;53.128;8.182;2022-11-18T20:20:19;7.05;;;4.40;;
12968;SDS011;6549;53.128;8.182;2022-11-18T20:23:19;7.10;;;4.25;;